createdAt,value
2023-02-11T00:03:15.205Z,-2.20
2023-02-11T00:08:22.340Z,-2.00
2023-02-11T00:13:29.385Z,-2.00
2023-02-11T00:18:36.778Z,-2.20
2023-02-11T00:23:44.075Z,-2.10
2023-02-11T00:28:52.252Z,-2.20
2023-02-11T00:33:59.068Z,-2.30
2023-02-11T00:39:08.120Z,-2.30
2023-02-11T00:44:15.017Z,-2.40
2023-02-11T00:49:22.000Z,-2.20
2023-02-11T00:54:30.038Z,-2.20
2023-02-11T00:59:37.040Z,-2.50
2023-02-11T01:04:44.129Z,-2.40
2023-02-11T01:09:51.057Z,-2.20
2023-02-11T01:14:57.903Z,-2.10
2023-02-11T01:20:10.629Z,-2.10
2023-02-11T01:25:17.136Z,-2.10
2023-02-11T01:30:24.495Z,-2.20
2023-02-11T01:35:31.326Z,-2.10
2023-02-11T01:40:38.641Z,-2.30
2023-02-11T01:45:50.409Z,-2.20
2023-02-11T01:51:04.870Z,-2.10
2023-02-11T01:56:29.598Z,-2.00
2023-02-11T02:01:38.832Z,-2.20
2023-02-11T02:06:57.685Z,-2.30
2023-02-11T02:12:04.971Z,-2.30
2023-02-11T02:17:30.991Z,-2.30
2023-02-11T02:22:53.774Z,-2.20
2023-02-11T02:28:13.659Z,-2.10
2023-02-11T02:33:35.420Z,-2.20
2023-02-11T02:38:58.695Z,-2.20
2023-02-11T02:44:05.298Z,-2.30
2023-02-11T02:49:19.288Z,-2.40
2023-02-11T02:54:53.169Z,-2.20
2023-02-11T03:00:27.893Z,-2.10
2023-02-11T03:05:56.329Z,-2.20
2023-02-11T03:11:05.351Z,-2.10
2023-02-11T03:16:21.460Z,-2.10
2023-02-11T03:21:29.034Z,-2.00
2023-02-11T03:26:51.524Z,-2.00
2023-02-11T03:32:24.890Z,-2.10
2023-02-11T03:37:40.132Z,-2.20
2023-02-11T03:42:54.092Z,-2.30
2023-02-11T03:48:11.340Z,-2.30
2023-02-11T03:53:20.550Z,-2.40
2023-02-11T03:58:27.365Z,-2.20
2023-02-11T04:03:34.088Z,-2.20
2023-02-11T04:08:40.878Z,-2.30
2023-02-11T04:13:47.578Z,-2.20
2023-02-11T04:18:54.460Z,-2.20
2023-02-11T04:24:01.177Z,-2.00
2023-02-11T04:29:07.791Z,-2.00
2023-02-11T04:34:14.455Z,-2.20
2023-02-11T04:39:21.227Z,-2.00
2023-02-11T04:44:27.959Z,-2.00
2023-02-11T04:49:34.648Z,-1.90
2023-02-11T04:54:41.422Z,-2.00
2023-02-11T04:59:48.389Z,-2.00
2023-02-11T05:04:55.082Z,-2.00
2023-02-11T05:10:01.803Z,-2.00
2023-02-11T05:15:08.864Z,-2.00
2023-02-11T05:20:15.772Z,-2.10
2023-02-11T05:25:22.495Z,-2.00
2023-02-11T05:30:29.200Z,-1.80
2023-02-11T05:35:36.019Z,-1.80
2023-02-11T05:40:42.903Z,-1.80
2023-02-11T05:45:49.801Z,-1.70
2023-02-11T05:50:57.287Z,-1.70
2023-02-11T05:56:04.546Z,-1.70
2023-02-11T06:01:11.152Z,-1.60
2023-02-11T06:06:18.042Z,-1.70
2023-02-11T06:11:24.775Z,-1.80
2023-02-11T06:16:31.566Z,-1.70
2023-02-11T06:21:43.872Z,-1.50
2023-02-11T06:26:47.001Z,-1.50
2023-02-11T06:31:53.790Z,-1.50
2023-02-11T06:37:00.609Z,-1.40
2023-02-11T06:42:08.060Z,-1.30
2023-02-11T06:47:14.692Z,-1.40
2023-02-11T06:52:21.713Z,-1.20
2023-02-11T06:57:28.841Z,-1.20
2023-02-11T07:02:37.965Z,-1.30
2023-02-11T07:07:44.704Z,-1.10
2023-02-11T07:12:51.396Z,-1.00
2023-02-11T07:17:58.094Z,-1.10
2023-02-11T07:23:04.733Z,-1.00
2023-02-11T07:28:11.466Z,-0.90
2023-02-11T07:33:18.208Z,-0.80
2023-02-11T07:38:24.922Z,-0.80
2023-02-11T07:43:32.825Z,-0.70
2023-02-11T07:48:39.693Z,-0.50
2023-02-11T07:53:47.186Z,-0.30
2023-02-11T07:58:54.718Z,0.00
2023-02-11T08:04:04.182Z,0.20
2023-02-11T08:09:14.790Z,0.40
2023-02-11T08:14:21.538Z,0.60
2023-02-11T08:19:28.439Z,0.70
2023-02-11T08:24:35.186Z,0.70
2023-02-11T08:29:41.989Z,0.70
2023-02-11T08:34:50.231Z,1.20
2023-02-11T08:39:57.022Z,1.30
2023-02-11T08:45:05.328Z,1.50
2023-02-11T08:50:12.433Z,1.70
2023-02-11T08:55:19.112Z,1.90
2023-02-11T09:00:25.709Z,2.10
2023-02-11T09:05:32.381Z,2.30
2023-02-11T09:10:39.329Z,2.60
2023-02-11T09:15:48.102Z,2.80
2023-02-11T09:20:55.178Z,3.10
2023-02-11T09:26:09.611Z,3.30
2023-02-11T09:31:21.226Z,3.40
2023-02-11T09:36:32.091Z,3.30
2023-02-11T09:42:26.813Z,3.20
2023-02-11T09:47:36.962Z,3.20
2023-02-11T09:52:51.944Z,3.70
2023-02-11T09:57:59.628Z,3.70
2023-02-11T10:03:34.283Z,3.80
2023-02-11T10:09:01.965Z,3.70
2023-02-11T10:14:58.129Z,3.70
2023-02-11T10:20:17.971Z,3.60
2023-02-11T10:25:36.394Z,3.50
2023-02-11T10:31:08.614Z,3.70
2023-02-11T10:36:18.066Z,3.70
2023-02-11T10:41:29.141Z,3.80
2023-02-11T10:46:40.433Z,4.00
2023-02-11T10:51:47.072Z,4.20
2023-02-11T10:56:57.678Z,4.30
2023-02-11T11:02:25.999Z,4.70
2023-02-11T11:07:36.346Z,4.90
2023-02-11T11:12:50.873Z,5.10
2023-02-11T11:18:23.550Z,5.30
2023-02-11T11:23:29.405Z,5.50
2023-02-11T11:28:52.121Z,5.70
2023-02-11T11:34:02.118Z,5.10
2023-02-11T11:39:21.982Z,4.70
2023-02-11T11:44:40.194Z,4.40
2023-02-11T11:50:23.911Z,4.60
2023-02-11T11:55:37.664Z,5.10
2023-02-11T12:01:23.478Z,5.40
2023-02-11T12:06:43.003Z,5.40
2023-02-11T12:12:26.938Z,5.40
2023-02-11T12:17:44.037Z,5.50
2023-02-11T12:23:12.820Z,5.80
2023-02-11T12:28:27.040Z,6.30
2023-02-11T12:33:56.109Z,6.00
2023-02-11T12:39:32.568Z,5.20
2023-02-11T12:44:52.479Z,4.90
2023-02-11T12:50:24.327Z,4.90
2023-02-11T12:55:40.586Z,5.80
2023-02-11T13:01:00.405Z,5.80
2023-02-11T13:06:14.455Z,5.70
2023-02-11T13:11:25.835Z,6.10
2023-02-11T13:16:50.090Z,5.90
2023-02-11T13:22:01.982Z,6.10
2023-02-11T13:27:25.075Z,6.30
2023-02-11T13:32:56.880Z,6.30
2023-02-11T13:38:07.959Z,6.20
2023-02-11T13:43:29.056Z,6.40
2023-02-11T13:48:39.899Z,6.00
2023-02-11T13:53:57.222Z,6.10
2023-02-11T13:59:07.474Z,6.20
2023-02-11T14:04:47.974Z,6.50
2023-02-11T14:09:55.327Z,7.00
2023-02-11T14:15:20.733Z,7.10
2023-02-11T14:20:40.390Z,6.90
2023-02-11T14:25:50.969Z,6.90
2023-02-11T14:31:16.179Z,6.80
2023-02-11T14:36:43.515Z,6.20
2023-02-11T14:41:54.405Z,6.10
2023-02-11T14:47:02.322Z,5.80
2023-02-11T14:52:31.217Z,5.60
2023-02-11T14:57:38.292Z,5.50
2023-02-11T15:02:46.260Z,5.40
2023-02-11T15:08:02.257Z,5.40
2023-02-11T15:13:09.740Z,5.30
2023-02-11T15:18:23.013Z,4.80
2023-02-11T15:23:31.883Z,4.90
2023-02-11T15:28:39.358Z,4.90
2023-02-11T15:33:46.197Z,5.00
2023-02-11T15:39:23.339Z,5.30
2023-02-11T15:44:33.137Z,5.30
2023-02-11T15:49:43.025Z,5.10
2023-02-11T15:54:50.879Z,4.80
2023-02-11T15:59:59.162Z,4.60
2023-02-11T16:05:12.942Z,4.40
2023-02-11T16:10:36.504Z,4.40
2023-02-11T16:16:05.175Z,4.10
2023-02-11T16:21:18.003Z,4.10
2023-02-11T16:26:37.625Z,4.10
2023-02-11T16:31:48.563Z,4.10
2023-02-11T16:36:55.787Z,4.00
2023-02-11T16:42:04.739Z,3.90
2023-02-11T16:47:21.714Z,3.60
2023-02-11T16:52:30.501Z,3.70
2023-02-11T16:57:37.434Z,3.70
2023-02-11T17:02:44.387Z,3.60
2023-02-11T17:07:51.805Z,3.60
2023-02-11T17:12:58.864Z,3.50
2023-02-11T17:18:05.963Z,3.50
2023-02-11T17:23:12.640Z,3.50
2023-02-11T17:28:19.622Z,3.50
2023-02-11T17:33:26.384Z,3.70
2023-02-11T17:38:33.153Z,3.70
2023-02-11T17:43:39.913Z,3.80
2023-02-11T17:48:48.023Z,4.00
2023-02-11T17:53:56.532Z,4.40
2023-02-11T17:59:03.241Z,4.50
2023-02-11T18:04:14.141Z,5.10
2023-02-11T18:09:20.933Z,5.30
2023-02-11T18:14:27.676Z,5.20
2023-02-11T18:19:35.910Z,5.20
2023-02-11T18:24:43.209Z,5.40
2023-02-11T18:29:49.871Z,5.00
2023-02-11T18:34:59.615Z,5.10
2023-02-11T18:40:06.762Z,5.30
2023-02-11T18:45:15.842Z,5.20
2023-02-11T18:50:23.181Z,4.80
2023-02-11T18:55:30.710Z,4.80
2023-02-11T19:00:39.350Z,4.60
2023-02-11T19:05:51.307Z,4.70
2023-02-11T19:10:58.319Z,4.60
2023-02-11T19:16:11.088Z,4.90
2023-02-11T19:21:16.623Z,4.90
2023-02-11T19:26:28.856Z,4.90
2023-02-11T19:31:36.303Z,4.90
2023-02-11T19:36:43.944Z,4.70
2023-02-11T19:41:51.006Z,4.60
2023-02-11T19:46:58.130Z,4.70
2023-02-11T19:52:05.755Z,4.90
2023-02-11T19:57:12.485Z,4.90
2023-02-11T20:02:19.377Z,5.10
2023-02-11T20:07:26.332Z,5.00
2023-02-11T20:12:33.496Z,4.90
2023-02-11T20:17:40.280Z,4.80
2023-02-11T20:22:46.990Z,5.10
2023-02-11T20:27:53.722Z,4.90
2023-02-11T20:33:00.422Z,5.00
2023-02-11T20:38:07.132Z,4.80
2023-02-11T20:43:13.965Z,4.70
2023-02-11T20:48:21.452Z,4.60
2023-02-11T20:53:30.631Z,4.60
2023-02-11T20:58:38.454Z,4.60
2023-02-11T21:03:47.035Z,4.50
2023-02-11T21:08:55.512Z,4.80
2023-02-11T21:14:03.057Z,4.90
2023-02-11T21:19:10.254Z,4.70
2023-02-11T21:24:17.683Z,4.70
2023-02-11T21:29:24.794Z,4.50
2023-02-11T21:34:31.550Z,5.10
2023-02-11T21:39:38.351Z,4.80
2023-02-11T21:44:45.138Z,4.70
2023-02-11T21:49:51.931Z,4.60
2023-02-11T21:54:58.768Z,4.50
2023-02-11T22:00:07.111Z,4.50
2023-02-11T22:05:13.689Z,4.50
2023-02-11T22:10:21.214Z,4.40
2023-02-11T22:15:27.931Z,4.40
2023-02-11T22:20:34.665Z,4.70
2023-02-11T22:25:41.762Z,4.60
2023-02-11T22:30:50.250Z,4.60
2023-02-11T22:36:06.502Z,4.30
2023-02-11T22:41:14.929Z,4.50
2023-02-11T22:46:23.025Z,4.40
2023-02-11T22:51:32.391Z,4.40
2023-02-11T22:56:39.406Z,4.50
2023-02-11T23:01:47.011Z,4.60
2023-02-11T23:06:53.789Z,4.60
2023-02-11T23:12:00.805Z,4.60
2023-02-11T23:17:07.542Z,4.70
2023-02-11T23:22:14.803Z,4.60
2023-02-11T23:27:21.837Z,4.70
2023-02-11T23:32:28.674Z,4.40
2023-02-11T23:37:35.618Z,4.70
2023-02-11T23:42:42.578Z,4.70
2023-02-11T23:47:49.700Z,4.70
2023-02-11T23:52:56.556Z,4.70
2023-02-11T23:58:03.491Z,4.40
